Rising Sun, Mississippi
Current Conditions -  °F | °C
As of 11:53 AM on Monday 24 Nov 2014 (Local Time) from KGWO Reporting Station
Clear Clear  
Wind Chill: 56°   Ceiling: Unl
Heat Index: 56°   Visibility: 10mi
Dew Point: 38°   Wind: 9mph
Humidity: 51%   Direction: 320°NW
Pressure: 29.94"   Gusts: NA
Location:  33.3926°N, 90.1584°W
Report Text: KGWO 241753Z AUTO 32008KT 10SM CLR 13/03 A2994 RMK AO2 SLP138 T01330033 10133 20111 50014 TSNO
Loading
Personal Weather Stations






























Interactive Weather Map New forecast layout! Learn more

10-Day Weather Forecast

Advertisements
Track Severe Weather on mobile